sensor_id;sensor_type;location;lat;lon;timestamp;temperature;humidity
59961;DHT22;55902;-37.980;-63.602;2023-12-28T01:00:58;18.90;99.90
59961;DHT22;55902;-37.980;-63.602;2023-12-28T01:03:25;19.50;99.90
59961;DHT22;55902;-37.980;-63.602;2023-12-28T01:05:52;19.50;99.90
59961;DHT22;55902;-37.980;-63.602;2023-12-28T01:08:21;19.50;99.90
59961;DHT22;55902;-37.980;-63.602;2023-12-28T01:11:08;19.60;99.90
59961;DHT22;55902;-37.980;-63.602;2023-12-28T01:13:37;19.70;99.90
59961;DHT22;55902;-37.980;-63.602;2023-12-28T01:16:06;19.80;99.90
59961;DHT22;55902;-37.980;-63.602;2023-12-28T01:18:35;19.80;99.90
59961;DHT22;55902;-37.980;-63.602;2023-12-28T01:21:02;19.90;99.90
59961;DHT22;55902;-37.980;-63.602;2023-12-28T01:23:31;20.00;99.90
59961;DHT22;55902;-37.980;-63.602;2023-12-28T01:26:15;20.10;99.90
59961;DHT22;55902;-37.980;-63.602;2023-12-28T01:28:44;20.20;99.90
59961;DHT22;55902;-37.980;-63.602;2023-12-28T01:31:12;20.40;99.90
59961;DHT22;55902;-37.980;-63.602;2023-12-28T01:33:38;20.50;99.90
59961;DHT22;55902;-37.980;-63.602;2023-12-28T01:36:21;20.50;99.90
59961;DHT22;55902;-37.980;-63.602;2023-12-28T01:38:49;20.60;99.90
59961;DHT22;55902;-37.980;-63.602;2023-12-28T01:41:16;20.60;99.90
59961;DHT22;55902;-37.980;-63.602;2023-12-28T01:43:43;20.70;99.90
59961;DHT22;55902;-37.980;-63.602;2023-12-28T01:46:19;20.70;99.90
59961;DHT22;55902;-37.980;-63.602;2023-12-28T01:48:49;20.70;99.90
59961;DHT22;55902;-37.980;-63.602;2023-12-28T01:51:17;20.80;99.90
59961;DHT22;55902;-37.980;-63.602;2023-12-28T01:53:45;20.80;99.90
59961;DHT22;55902;-37.980;-63.602;2023-12-28T01:56:14;20.90;99.90
59961;DHT22;55902;-37.980;-63.602;2023-12-28T01:58:43;20.90;99.90
59961;DHT22;55902;-37.980;-63.602;2023-12-28T02:01:11;20.90;99.90
59961;DHT22;55902;-37.980;-63.602;2023-12-28T02:03:39;21.00;99.90
59961;DHT22;55902;-37.980;-63.602;2023-12-28T02:06:07;21.00;99.90
59961;DHT22;55902;-37.980;-63.602;2023-12-28T02:08:34;20.90;99.90
59961;DHT22;55902;-37.980;-63.602;2023-12-28T02:11:01;20.90;99.90
59961;DHT22;55902;-37.980;-63.602;2023-12-28T02:13:28;20.80;99.90
59961;DHT22;55902;-37.980;-63.602;2023-12-28T02:16:09;20.80;99.90
59961;DHT22;55902;-37.980;-63.602;2023-12-28T02:18:42;20.70;99.90
59961;DHT22;55902;-37.980;-63.602;2023-12-28T02:21:15;20.70;99.90
59961;DHT22;55902;-37.980;-63.602;2023-12-28T02:23:49;20.70;99.90
59961;DHT22;55902;-37.980;-63.602;2023-12-28T02:26:18;20.70;99.90
59961;DHT22;55902;-37.980;-63.602;2023-12-28T02:28:45;20.70;99.90
59961;DHT22;55902;-37.980;-63.602;2023-12-28T02:31:28;20.70;99.90
59961;DHT22;55902;-37.980;-63.602;2023-12-28T02:34:28;20.60;99.90
59961;DHT22;55902;-37.980;-63.602;2023-12-28T02:36:59;20.60;99.90
59961;DHT22;55902;-37.980;-63.602;2023-12-28T02:39:28;20.60;99.90
59961;DHT22;55902;-37.980;-63.602;2023-12-28T02:41:58;20.70;99.90
59961;DHT22;55902;-37.980;-63.602;2023-12-28T02:44:30;20.70;99.90
59961;DHT22;55902;-37.980;-63.602;2023-12-28T02:47:00;20.70;99.90
59961;DHT22;55902;-37.980;-63.602;2023-12-28T02:49:27;20.70;99.90
59961;DHT22;55902;-37.980;-63.602;2023-12-28T02:51:54;20.70;99.90
59961;DHT22;55902;-37.980;-63.602;2023-12-28T02:54:21;20.70;99.90
59961;DHT22;55902;-37.980;-63.602;2023-12-28T02:56:48;20.60;99.90
59961;DHT22;55902;-37.980;-63.602;2023-12-28T02:59:16;20.60;99.90
59961;DHT22;55902;-37.980;-63.602;2023-12-28T03:01:46;20.60;99.90
59961;DHT22;55902;-37.980;-63.602;2023-12-28T03:04:14;20.60;99.90
59961;DHT22;55902;-37.980;-63.602;2023-12-28T03:06:46;20.60;99.90
59961;DHT22;55902;-37.980;-63.602;2023-12-28T03:09:14;20.60;99.90
59961;DHT22;55902;-37.980;-63.602;2023-12-28T03:11:45;20.50;99.90
59961;DHT22;55902;-37.980;-63.602;2023-12-28T03:14:12;20.60;99.90
59961;DHT22;55902;-37.980;-63.602;2023-12-28T03:16:39;20.70;99.90
59961;DHT22;55902;-37.980;-63.602;2023-12-28T03:19:06;20.70;99.90
59961;DHT22;55902;-37.980;-63.602;2023-12-28T03:21:33;20.70;99.90
59961;DHT22;55902;-37.980;-63.602;2023-12-28T03:24:00;20.70;99.90
59961;DHT22;55902;-37.980;-63.602;2023-12-28T03:26:27;20.80;99.90
59961;DHT22;55902;-37.980;-63.602;2023-12-28T03:28:54;20.70;99.90
59961;DHT22;55902;-37.980;-63.602;2023-12-28T03:31:21;20.70;99.90
59961;DHT22;55902;-37.980;-63.602;2023-12-28T03:33:48;20.70;99.90
59961;DHT22;55902;-37.980;-63.602;2023-12-28T03:36:21;20.60;99.90
59961;DHT22;55902;-37.980;-63.602;2023-12-28T03:38:49;20.60;99.90
59961;DHT22;55902;-37.980;-63.602;2023-12-28T03:41:20;20.50;99.90
59961;DHT22;55902;-37.980;-63.602;2023-12-28T03:43:48;20.50;99.90
59961;DHT22;55902;-37.980;-63.602;2023-12-28T03:46:16;20.40;99.90
59961;DHT22;55902;-37.980;-63.602;2023-12-28T03:48:43;20.40;99.90
59961;DHT22;55902;-37.980;-63.602;2023-12-28T03:51:14;20.40;99.90
59961;DHT22;55902;-37.980;-63.602;2023-12-28T03:53:42;20.30;99.90
59961;DHT22;55902;-37.980;-63.602;2023-12-28T03:56:21;20.30;99.90
59961;DHT22;55902;-37.980;-63.602;2023-12-28T03:58:49;20.30;99.90
59961;DHT22;55902;-37.980;-63.602;2023-12-28T04:01:20;20.20;99.90
59961;DHT22;55902;-37.980;-63.602;2023-12-28T04:03:48;20.20;99.90
59961;DHT22;55902;-37.980;-63.602;2023-12-28T04:06:15;20.20;99.90
59961;DHT22;55902;-37.980;-63.602;2023-12-28T04:08:43;20.20;99.90
59961;DHT22;55902;-37.980;-63.602;2023-12-28T04:11:10;20.10;99.90
59961;DHT22;55902;-37.980;-63.602;2023-12-28T04:13:37;20.10;99.90
59961;DHT22;55902;-37.980;-63.602;2023-12-28T04:16:05;20.10;99.90
59961;DHT22;55902;-37.980;-63.602;2023-12-28T04:18:32;20.10;99.90
59961;DHT22;55902;-37.980;-63.602;2023-12-28T04:20:59;20.10;99.90
59961;DHT22;55902;-37.980;-63.602;2023-12-28T04:23:26;20.00;99.90
59961;DHT22;55902;-37.980;-63.602;2023-12-28T04:25:53;20.00;99.90
59961;DHT22;55902;-37.980;-63.602;2023-12-28T04:28:20;20.00;99.90
59961;DHT22;55902;-37.980;-63.602;2023-12-28T04:30:47;20.00;99.90
59961;DHT22;55902;-37.980;-63.602;2023-12-28T04:33:17;20.00;99.90
59961;DHT22;55902;-37.980;-63.602;2023-12-28T04:35:45;19.90;99.90
59961;DHT22;55902;-37.980;-63.602;2023-12-28T04:38:13;19.90;99.90
59961;DHT22;55902;-37.980;-63.602;2023-12-28T04:40:40;19.90;99.90
59961;DHT22;55902;-37.980;-63.602;2023-12-28T04:43:07;19.90;99.90
59961;DHT22;55902;-37.980;-63.602;2023-12-28T04:45:34;19.90;99.90
59961;DHT22;55902;-37.980;-63.602;2023-12-28T04:48:01;19.80;99.90
59961;DHT22;55902;-37.980;-63.602;2023-12-28T04:50:28;19.80;99.90
59961;DHT22;55902;-37.980;-63.602;2023-12-28T04:52:56;19.80;99.90
59961;DHT22;55902;-37.980;-63.602;2023-12-28T04:55:23;19.70;99.90
59961;DHT22;55902;-37.980;-63.602;2023-12-28T04:57:50;19.70;99.90
59961;DHT22;55902;-37.980;-63.602;2023-12-28T05:00:17;19.70;99.90
59961;DHT22;55902;-37.980;-63.602;2023-12-28T05:02:44;19.70;99.90
59961;DHT22;55902;-37.980;-63.602;2023-12-28T05:05:12;19.60;99.90
59961;DHT22;55902;-37.980;-63.602;2023-12-28T05:07:39;19.60;99.90
59961;DHT22;55902;-37.980;-63.602;2023-12-28T05:10:07;19.50;99.90
59961;DHT22;55902;-37.980;-63.602;2023-12-28T05:12:34;19.50;99.90
59961;DHT22;55902;-37.980;-63.602;2023-12-28T05:15:01;19.50;99.90
59961;DHT22;55902;-37.980;-63.602;2023-12-28T05:17:28;19.50;99.90
59961;DHT22;55902;-37.980;-63.602;2023-12-28T05:19:54;19.50;99.90
59961;DHT22;55902;-37.980;-63.602;2023-12-28T05:22:22;19.60;99.90
59961;DHT22;55902;-37.980;-63.602;2023-12-28T05:24:49;19.70;99.90
59961;DHT22;55902;-37.980;-63.602;2023-12-28T05:27:16;19.70;99.90
59961;DHT22;55902;-37.980;-63.602;2023-12-28T05:29:43;19.80;99.90
59961;DHT22;55902;-37.980;-63.602;2023-12-28T05:32:10;19.80;99.90
59961;DHT22;55902;-37.980;-63.602;2023-12-28T05:34:37;19.80;99.90
59961;DHT22;55902;-37.980;-63.602;2023-12-28T05:37:04;19.70;99.90
59961;DHT22;55902;-37.980;-63.602;2023-12-28T05:39:31;19.70;99.90
59961;DHT22;55902;-37.980;-63.602;2023-12-28T05:41:58;19.80;99.90
59961;DHT22;55902;-37.980;-63.602;2023-12-28T05:44:25;19.80;99.90
59961;DHT22;55902;-37.980;-63.602;2023-12-28T05:46:52;19.70;99.90
59961;DHT22;55902;-37.980;-63.602;2023-12-28T05:49:19;19.70;99.90
59961;DHT22;55902;-37.980;-63.602;2023-12-28T05:51:46;19.60;99.90
59961;DHT22;55902;-37.980;-63.602;2023-12-28T05:54:13;19.60;99.90
59961;DHT22;55902;-37.980;-63.602;2023-12-28T05:56:40;19.60;99.90
59961;DHT22;55902;-37.980;-63.602;2023-12-28T05:59:07;19.60;99.90
59961;DHT22;55902;-37.980;-63.602;2023-12-28T06:01:42;19.50;99.90
59961;DHT22;55902;-37.980;-63.602;2023-12-28T06:04:09;19.50;99.90
59961;DHT22;55902;-37.980;-63.602;2023-12-28T06:06:36;19.50;99.90
59961;DHT22;55902;-37.980;-63.602;2023-12-28T06:09:04;19.50;99.90
59961;DHT22;55902;-37.980;-63.602;2023-12-28T06:11:31;19.40;99.90
59961;DHT22;55902;-37.980;-63.602;2023-12-28T06:13:58;19.40;99.90
59961;DHT22;55902;-37.980;-63.602;2023-12-28T06:16:24;19.40;99.90
59961;DHT22;55902;-37.980;-63.602;2023-12-28T06:18:51;19.40;99.90
59961;DHT22;55902;-37.980;-63.602;2023-12-28T06:21:18;19.30;99.90
59961;DHT22;55902;-37.980;-63.602;2023-12-28T06:23:46;19.30;99.90
59961;DHT22;55902;-37.980;-63.602;2023-12-28T06:26:12;19.40;99.90
59961;DHT22;55902;-37.980;-63.602;2023-12-28T06:28:39;19.30;99.90
59961;DHT22;55902;-37.980;-63.602;2023-12-28T06:31:07;19.30;99.90
59961;DHT22;55902;-37.980;-63.602;2023-12-28T06:33:34;19.30;99.90
59961;DHT22;55902;-37.980;-63.602;2023-12-28T06:36:11;19.20;99.90
59961;DHT22;55902;-37.980;-63.602;2023-12-28T06:38:38;19.20;99.90
59961;DHT22;55902;-37.980;-63.602;2023-12-28T06:41:14;19.20;99.90
59961;DHT22;55902;-37.980;-63.602;2023-12-28T06:43:41;19.20;99.90
59961;DHT22;55902;-37.980;-63.602;2023-12-28T06:46:08;19.20;99.90
59961;DHT22;55902;-37.980;-63.602;2023-12-28T06:48:35;19.20;99.90
59961;DHT22;55902;-37.980;-63.602;2023-12-28T06:51:04;19.20;99.90
59961;DHT22;55902;-37.980;-63.602;2023-12-28T06:53:31;19.20;99.90
59961;DHT22;55902;-37.980;-63.602;2023-12-28T06:55:58;19.10;99.90
59961;DHT22;55902;-37.980;-63.602;2023-12-28T06:58:25;19.10;99.90
59961;DHT22;55902;-37.980;-63.602;2023-12-28T07:00:52;19.10;99.90
59961;DHT22;55902;-37.980;-63.602;2023-12-28T07:03:19;19.10;99.90
59961;DHT22;55902;-37.980;-63.602;2023-12-28T07:05:46;19.20;99.90
59961;DHT22;55902;-37.980;-63.602;2023-12-28T07:08:13;19.20;99.90
59961;DHT22;55902;-37.980;-63.602;2023-12-28T07:10:40;19.20;99.90
59961;DHT22;55902;-37.980;-63.602;2023-12-28T07:13:07;19.20;99.90
59961;DHT22;55902;-37.980;-63.602;2023-12-28T07:15:34;19.20;99.90
59961;DHT22;55902;-37.980;-63.602;2023-12-28T07:18:02;19.20;99.90
59961;DHT22;55902;-37.980;-63.602;2023-12-28T07:20:28;19.30;99.90
59961;DHT22;55902;-37.980;-63.602;2023-12-28T07:22:55;19.30;99.90
59961;DHT22;55902;-37.980;-63.602;2023-12-28T07:25:22;19.30;99.90
59961;DHT22;55902;-37.980;-63.602;2023-12-28T07:27:50;19.30;99.90
59961;DHT22;55902;-37.980;-63.602;2023-12-28T07:30:17;19.30;99.90
59961;DHT22;55902;-37.980;-63.602;2023-12-28T07:32:44;19.30;99.90
59961;DHT22;55902;-37.980;-63.602;2023-12-28T07:35:14;19.30;99.90
59961;DHT22;55902;-37.980;-63.602;2023-12-28T07:37:40;19.20;99.90
59961;DHT22;55902;-37.980;-63.602;2023-12-28T07:40:08;19.20;99.90
59961;DHT22;55902;-37.980;-63.602;2023-12-28T07:42:35;19.20;99.90
59961;DHT22;55902;-37.980;-63.602;2023-12-28T07:45:02;19.10;99.90
59961;DHT22;55902;-37.980;-63.602;2023-12-28T07:47:29;19.10;99.90
59961;DHT22;55902;-37.980;-63.602;2023-12-28T07:49:56;19.10;99.90
59961;DHT22;55902;-37.980;-63.602;2023-12-28T07:52:23;19.00;99.90
59961;DHT22;55902;-37.980;-63.602;2023-12-28T07:54:50;19.10;99.90
59961;DHT22;55902;-37.980;-63.602;2023-12-28T07:57:17;19.10;99.90
59961;DHT22;55902;-37.980;-63.602;2023-12-28T07:59:44;19.00;99.90
59961;DHT22;55902;-37.980;-63.602;2023-12-28T08:02:11;19.00;99.90
59961;DHT22;55902;-37.980;-63.602;2023-12-28T08:04:38;19.10;99.90
59961;DHT22;55902;-37.980;-63.602;2023-12-28T08:07:05;19.10;99.90
59961;DHT22;55902;-37.980;-63.602;2023-12-28T08:09:35;19.10;99.90
59961;DHT22;55902;-37.980;-63.602;2023-12-28T08:12:01;19.10;99.90
59961;DHT22;55902;-37.980;-63.602;2023-12-28T08:14:29;19.10;99.90
59961;DHT22;55902;-37.980;-63.602;2023-12-28T08:16:56;19.10;99.90
59961;DHT22;55902;-37.980;-63.602;2023-12-28T08:19:23;19.10;99.90
59961;DHT22;55902;-37.980;-63.602;2023-12-28T08:21:50;19.10;99.90
59961;DHT22;55902;-37.980;-63.602;2023-12-28T08:24:16;19.10;99.90
59961;DHT22;55902;-37.980;-63.602;2023-12-28T08:26:43;19.00;99.90
59961;DHT22;55902;-37.980;-63.602;2023-12-28T08:29:10;19.10;99.90
59961;DHT22;55902;-37.980;-63.602;2023-12-28T08:31:38;19.00;99.90
59961;DHT22;55902;-37.980;-63.602;2023-12-28T08:34:05;19.00;99.90
59961;DHT22;55902;-37.980;-63.602;2023-12-28T08:36:31;19.00;99.90
59961;DHT22;55902;-37.980;-63.602;2023-12-28T08:38:58;19.10;99.90
59961;DHT22;55902;-37.980;-63.602;2023-12-28T08:41:25;19.10;99.90
59961;DHT22;55902;-37.980;-63.602;2023-12-28T08:43:53;19.00;99.90
59961;DHT22;55902;-37.980;-63.602;2023-12-28T08:46:23;19.00;99.90
59961;DHT22;55902;-37.980;-63.602;2023-12-28T08:48:55;18.90;99.90
59961;DHT22;55902;-37.980;-63.602;2023-12-28T08:51:22;18.90;99.90
59961;DHT22;55902;-37.980;-63.602;2023-12-28T08:53:49;18.90;99.90
59961;DHT22;55902;-37.980;-63.602;2023-12-28T08:56:22;18.90;99.90
59961;DHT22;55902;-37.980;-63.602;2023-12-28T08:58:49;18.90;99.90
59961;DHT22;55902;-37.980;-63.602;2023-12-28T09:01:22;18.90;99.90
59961;DHT22;55902;-37.980;-63.602;2023-12-28T09:03:52;19.00;99.90
59961;DHT22;55902;-37.980;-63.602;2023-12-28T09:06:21;18.90;99.90
59961;DHT22;55902;-37.980;-63.602;2023-12-28T09:08:49;18.90;99.90
59961;DHT22;55902;-37.980;-63.602;2023-12-28T09:11:20;18.90;99.90
59961;DHT22;55902;-37.980;-63.602;2023-12-28T09:17:22;19.00;99.90
59961;DHT22;55902;-37.980;-63.602;2023-12-28T09:19:50;19.00;99.90
59961;DHT22;55902;-37.980;-63.602;2023-12-28T09:22:17;19.00;99.90
59961;DHT22;55902;-37.980;-63.602;2023-12-28T09:24:44;19.00;99.90
59961;DHT22;55902;-37.980;-63.602;2023-12-28T09:27:11;19.00;99.90
59961;DHT22;55902;-37.980;-63.602;2023-12-28T09:29:38;19.10;99.90
59961;DHT22;55902;-37.980;-63.602;2023-12-28T09:32:05;19.10;99.90
59961;DHT22;55902;-37.980;-63.602;2023-12-28T09:34:32;19.10;99.90
59961;DHT22;55902;-37.980;-63.602;2023-12-28T09:37:05;19.10;99.90
59961;DHT22;55902;-37.980;-63.602;2023-12-28T09:39:48;19.20;99.90
59961;DHT22;55902;-37.980;-63.602;2023-12-28T09:45:42;19.20;99.90
59961;DHT22;55902;-37.980;-63.602;2023-12-28T09:48:20;19.30;99.90
59961;DHT22;55902;-37.980;-63.602;2023-12-28T09:50:52;19.30;99.90
59961;DHT22;55902;-37.980;-63.602;2023-12-28T09:53:26;19.40;99.90
59961;DHT22;55902;-37.980;-63.602;2023-12-28T09:55:53;19.50;99.90
59961;DHT22;55902;-37.980;-63.602;2023-12-28T09:58:24;19.50;99.90
59961;DHT22;55902;-37.980;-63.602;2023-12-28T10:00:52;19.60;99.90
59961;DHT22;55902;-37.980;-63.602;2023-12-28T10:03:20;19.70;99.90
59961;DHT22;55902;-37.980;-63.602;2023-12-28T10:05:47;19.80;99.90
59961;DHT22;55902;-37.980;-63.602;2023-12-28T10:08:15;19.80;99.90
59961;DHT22;55902;-37.980;-63.602;2023-12-28T10:10:43;19.90;99.90
59961;DHT22;55902;-37.980;-63.602;2023-12-28T10:13:17;19.90;99.90
59961;DHT22;55902;-37.980;-63.602;2023-12-28T10:15:44;20.10;99.90
59961;DHT22;55902;-37.980;-63.602;2023-12-28T10:18:11;20.10;99.90
59961;DHT22;55902;-37.980;-63.602;2023-12-28T10:20:38;20.30;99.90
59961;DHT22;55902;-37.980;-63.602;2023-12-28T10:23:05;20.40;99.90
59961;DHT22;55902;-37.980;-63.602;2023-12-28T10:25:33;20.50;99.90
59961;DHT22;55902;-37.980;-63.602;2023-12-28T10:28:04;20.70;99.90
59961;DHT22;55902;-37.980;-63.602;2023-12-28T10:30:34;20.80;99.90
59961;DHT22;55902;-37.980;-63.602;2023-12-28T10:33:01;20.90;99.90
59961;DHT22;55902;-37.980;-63.602;2023-12-28T10:35:31;21.00;99.90
59961;DHT22;55902;-37.980;-63.602;2023-12-28T10:38:00;21.10;99.90
59961;DHT22;55902;-37.980;-63.602;2023-12-28T10:40:30;21.30;99.90
59961;DHT22;55902;-37.980;-63.602;2023-12-28T10:43:01;21.40;99.90
59961;DHT22;55902;-37.980;-63.602;2023-12-28T10:45:33;21.50;99.90
59961;DHT22;55902;-37.980;-63.602;2023-12-28T10:48:10;21.70;99.90
59961;DHT22;55902;-37.980;-63.602;2023-12-28T10:50:42;21.90;99.90
59961;DHT22;55902;-37.980;-63.602;2023-12-28T11:01:41;22.30;99.90
59961;DHT22;55902;-37.980;-63.602;2023-12-28T11:06:42;22.60;99.90
59961;DHT22;55902;-37.980;-63.602;2023-12-28T11:09:10;22.70;99.90
59961;DHT22;55902;-37.980;-63.602;2023-12-28T11:11:38;22.70;99.90
59961;DHT22;55902;-37.980;-63.602;2023-12-28T11:14:07;22.80;99.90
59961;DHT22;55902;-37.980;-63.602;2023-12-28T11:16:34;22.90;99.90
59961;DHT22;55902;-37.980;-63.602;2023-12-28T11:19:02;23.10;99.90
59961;DHT22;55902;-37.980;-63.602;2023-12-28T11:21:30;23.20;99.90
59961;DHT22;55902;-37.980;-63.602;2023-12-28T11:23:59;23.40;99.90
59961;DHT22;55902;-37.980;-63.602;2023-12-28T11:26:26;23.50;99.90
59961;DHT22;55902;-37.980;-63.602;2023-12-28T11:29:01;23.50;99.90
59961;DHT22;55902;-37.980;-63.602;2023-12-28T11:31:31;23.30;99.90
59961;DHT22;55902;-37.980;-63.602;2023-12-28T11:34:00;23.30;99.90
59961;DHT22;55902;-37.980;-63.602;2023-12-28T11:36:34;23.20;99.90
59961;DHT22;55902;-37.980;-63.602;2023-12-28T11:39:06;23.10;99.90
59961;DHT22;55902;-37.980;-63.602;2023-12-28T11:41:36;22.90;99.90
59961;DHT22;55902;-37.980;-63.602;2023-12-28T11:44:06;22.90;99.90
59961;DHT22;55902;-37.980;-63.602;2023-12-28T11:46:35;22.80;99.90
59961;DHT22;55902;-37.980;-63.602;2023-12-28T11:49:11;22.90;99.90
59961;DHT22;55902;-37.980;-63.602;2023-12-28T11:51:39;23.00;99.90
59961;DHT22;55902;-37.980;-63.602;2023-12-28T11:54:07;23.10;99.90
59961;DHT22;55902;-37.980;-63.602;2023-12-28T11:56:34;23.20;99.90
59961;DHT22;55902;-37.980;-63.602;2023-12-28T11:59:05;23.30;99.90
59961;DHT22;55902;-37.980;-63.602;2023-12-28T12:01:33;23.50;99.90
59961;DHT22;55902;-37.980;-63.602;2023-12-28T12:04:00;23.60;99.90
59961;DHT22;55902;-37.980;-63.602;2023-12-28T12:06:28;23.80;99.90
59961;DHT22;55902;-37.980;-63.602;2023-12-28T12:09:15;24.00;99.90
59961;DHT22;55902;-37.980;-63.602;2023-12-28T12:11:42;24.30;99.90
59961;DHT22;55902;-37.980;-63.602;2023-12-28T12:14:11;24.50;99.90
59961;DHT22;55902;-37.980;-63.602;2023-12-28T12:16:39;24.70;99.90
59961;DHT22;55902;-37.980;-63.602;2023-12-28T12:19:06;24.90;99.90
59961;DHT22;55902;-37.980;-63.602;2023-12-28T12:21:34;25.00;99.90
59961;DHT22;55902;-37.980;-63.602;2023-12-28T12:24:04;25.10;99.90
59961;DHT22;55902;-37.980;-63.602;2023-12-28T12:26:31;25.20;99.90
59961;DHT22;55902;-37.980;-63.602;2023-12-28T12:29:02;25.40;99.90
59961;DHT22;55902;-37.980;-63.602;2023-12-28T12:31:33;25.60;99.90
59961;DHT22;55902;-37.980;-63.602;2023-12-28T12:34:01;25.90;99.90
59961;DHT22;55902;-37.980;-63.602;2023-12-28T12:36:27;26.00;99.90
59961;DHT22;55902;-37.980;-63.602;2023-12-28T12:38:55;25.90;99.90
59961;DHT22;55902;-37.980;-63.602;2023-12-28T12:41:23;25.80;99.90
59961;DHT22;55902;-37.980;-63.602;2023-12-28T12:43:50;25.80;99.90
59961;DHT22;55902;-37.980;-63.602;2023-12-28T12:46:17;26.10;99.90
59961;DHT22;55902;-37.980;-63.602;2023-12-28T12:48:57;26.60;99.90
59961;DHT22;55902;-37.980;-63.602;2023-12-28T12:51:28;27.00;99.90
59961;DHT22;55902;-37.980;-63.602;2023-12-28T12:53:58;27.50;99.90
59961;DHT22;55902;-37.980;-63.602;2023-12-28T12:56:29;27.50;99.90
59961;DHT22;55902;-37.980;-63.602;2023-12-28T12:58:57;27.30;99.90
59961;DHT22;55902;-37.980;-63.602;2023-12-28T13:01:24;27.20;99.90
59961;DHT22;55902;-37.980;-63.602;2023-12-28T13:03:52;27.40;99.90
59961;DHT22;55902;-37.980;-63.602;2023-12-28T13:06:19;27.60;99.90
59961;DHT22;55902;-37.980;-63.602;2023-12-28T13:08:52;28.30;99.90
59961;DHT22;55902;-37.980;-63.602;2023-12-28T13:11:20;28.80;99.90
59961;DHT22;55902;-37.980;-63.602;2023-12-28T13:13:53;29.00;99.90
59961;DHT22;55902;-37.980;-63.602;2023-12-28T13:16:20;28.80;99.90
59961;DHT22;55902;-37.980;-63.602;2023-12-28T13:18:47;28.80;99.90
59961;DHT22;55902;-37.980;-63.602;2023-12-28T13:21:14;28.90;99.90
59961;DHT22;55902;-37.980;-63.602;2023-12-28T13:23:41;29.30;99.90
59961;DHT22;55902;-37.980;-63.602;2023-12-28T13:26:07;29.70;99.90
59961;DHT22;55902;-37.980;-63.602;2023-12-28T13:28:35;30.00;99.90
59961;DHT22;55902;-37.980;-63.602;2023-12-28T13:31:02;30.00;99.90
59961;DHT22;55902;-37.980;-63.602;2023-12-28T13:33:29;30.00;99.90
59961;DHT22;55902;-37.980;-63.602;2023-12-28T13:35:56;30.10;99.90
59961;DHT22;55902;-37.980;-63.602;2023-12-28T13:38:27;30.10;99.90
59961;DHT22;55902;-37.980;-63.602;2023-12-28T13:41:17;30.10;99.90
59961;DHT22;55902;-37.980;-63.602;2023-12-28T13:43:44;30.40;99.90
59961;DHT22;55902;-37.980;-63.602;2023-12-28T13:46:11;30.80;99.90
59961;DHT22;55902;-37.980;-63.602;2023-12-28T13:48:41;31.10;99.90
59961;DHT22;55902;-37.980;-63.602;2023-12-28T13:51:12;31.40;99.90
59961;DHT22;55902;-37.980;-63.602;2023-12-28T13:53:39;31.80;99.90
59961;DHT22;55902;-37.980;-63.602;2023-12-28T13:56:07;32.20;99.90
59961;DHT22;55902;-37.980;-63.602;2023-12-28T13:58:37;32.20;99.90
59961;DHT22;55902;-37.980;-63.602;2023-12-28T14:01:05;32.20;99.90
59961;DHT22;55902;-37.980;-63.602;2023-12-28T14:03:32;32.30;99.90
59961;DHT22;55902;-37.980;-63.602;2023-12-28T14:06:02;32.20;99.90
59961;DHT22;55902;-37.980;-63.602;2023-12-28T14:08:29;32.10;99.90
59961;DHT22;55902;-37.980;-63.602;2023-12-28T14:10:56;32.00;99.90
59961;DHT22;55902;-37.980;-63.602;2023-12-28T14:13:23;32.00;99.90
59961;DHT22;55902;-37.980;-63.602;2023-12-28T14:15:51;31.90;99.90
59961;DHT22;55902;-37.980;-63.602;2023-12-28T14:18:17;31.90;99.90
59961;DHT22;55902;-37.980;-63.602;2023-12-28T14:20:45;31.90;99.90
59961;DHT22;55902;-37.980;-63.602;2023-12-28T14:23:17;32.00;99.90
59961;DHT22;55902;-37.980;-63.602;2023-12-28T14:25:46;32.20;99.90
59961;DHT22;55902;-37.980;-63.602;2023-12-28T14:28:32;32.30;99.90
59961;DHT22;55902;-37.980;-63.602;2023-12-28T14:31:03;32.50;99.90
59961;DHT22;55902;-37.980;-63.602;2023-12-28T14:33:31;32.60;99.90
59961;DHT22;55902;-37.980;-63.602;2023-12-28T14:35:58;32.70;99.90
59961;DHT22;55902;-37.980;-63.602;2023-12-28T14:38:26;32.80;99.90
59961;DHT22;55902;-37.980;-63.602;2023-12-28T14:40:53;33.00;99.90
59961;DHT22;55902;-37.980;-63.602;2023-12-28T14:43:22;33.20;99.90
59961;DHT22;55902;-37.980;-63.602;2023-12-28T14:45:49;33.50;99.90
59961;DHT22;55902;-37.980;-63.602;2023-12-28T14:48:18;33.80;99.90
59961;DHT22;55902;-37.980;-63.602;2023-12-28T14:50:45;33.90;99.90
59961;DHT22;55902;-37.980;-63.602;2023-12-28T14:53:12;33.90;97.00
59961;DHT22;55902;-37.980;-63.602;2023-12-28T14:55:40;33.80;96.10
59961;DHT22;55902;-37.980;-63.602;2023-12-28T14:58:07;33.70;96.70
59961;DHT22;55902;-37.980;-63.602;2023-12-28T15:00:34;33.70;99.00
59961;DHT22;55902;-37.980;-63.602;2023-12-28T15:03:01;33.90;96.00
59961;DHT22;55902;-37.980;-63.602;2023-12-28T15:05:28;34.00;97.90
59961;DHT22;55902;-37.980;-63.602;2023-12-28T15:07:55;34.00;96.40
59961;DHT22;55902;-37.980;-63.602;2023-12-28T15:10:22;34.00;94.60
59961;DHT22;55902;-37.980;-63.602;2023-12-28T15:12:50;34.00;92.50
59961;DHT22;55902;-37.980;-63.602;2023-12-28T15:15:17;33.90;91.20
59961;DHT22;55902;-37.980;-63.602;2023-12-28T15:17:44;33.80;91.70
59961;DHT22;55902;-37.980;-63.602;2023-12-28T15:20:12;33.80;92.80
59961;DHT22;55902;-37.980;-63.602;2023-12-28T15:22:39;33.70;92.20
59961;DHT22;55902;-37.980;-63.602;2023-12-28T15:25:06;33.50;93.30
59961;DHT22;55902;-37.980;-63.602;2023-12-28T15:27:33;33.40;92.60
59961;DHT22;55902;-37.980;-63.602;2023-12-28T15:30:01;33.40;92.10
59961;DHT22;55902;-37.980;-63.602;2023-12-28T15:32:28;33.40;89.80
59961;DHT22;55902;-37.980;-63.602;2023-12-28T15:34:55;33.50;91.80
59961;DHT22;55902;-37.980;-63.602;2023-12-28T15:37:23;33.70;90.30
59961;DHT22;55902;-37.980;-63.602;2023-12-28T15:39:50;34.00;88.20
59961;DHT22;55902;-37.980;-63.602;2023-12-28T15:42:40;34.20;84.20
59961;DHT22;55902;-37.980;-63.602;2023-12-28T15:45:08;34.50;87.70
59961;DHT22;55902;-37.980;-63.602;2023-12-28T15:47:42;34.80;80.90
59961;DHT22;55902;-37.980;-63.602;2023-12-28T15:50:10;35.00;80.60
59961;DHT22;55902;-37.980;-63.602;2023-12-28T15:52:44;35.20;82.80
59961;DHT22;55902;-37.980;-63.602;2023-12-28T15:55:21;35.40;78.70
59961;DHT22;55902;-37.980;-63.602;2023-12-28T15:57:48;35.60;80.00
59961;DHT22;55902;-37.980;-63.602;2023-12-28T16:00:17;35.80;83.00
59961;DHT22;55902;-37.980;-63.602;2023-12-28T16:02:49;35.90;80.90
59961;DHT22;55902;-37.980;-63.602;2023-12-28T16:05:16;36.00;83.30
59961;DHT22;55902;-37.980;-63.602;2023-12-28T16:08:04;36.20;84.70
59961;DHT22;55902;-37.980;-63.602;2023-12-28T16:10:31;36.30;76.50
59961;DHT22;55902;-37.980;-63.602;2023-12-28T16:12:58;36.50;78.10
59961;DHT22;55902;-37.980;-63.602;2023-12-28T16:15:25;36.60;76.50